sensor_id;sensor_type;location;lat;lon;timestamp;P1;durP1;ratioP1;P2;durP2;ratioP2
36725;SDS011;44936;52.086;5.150;2022-08-01T00:01:58;2.77;;;1.47;;
36725;SDS011;44936;52.086;5.150;2022-08-01T00:04:23;5.63;;;1.50;;
36725;SDS011;44936;52.086;5.150;2022-08-01T00:06:48;4.33;;;1.90;;
36725;SDS011;44936;52.086;5.150;2022-08-01T00:09:14;2.93;;;1.73;;
36725;SDS011;44936;52.086;5.150;2022-08-01T00:11:39;5.03;;;2.10;;
36725;SDS011;44936;52.086;5.150;2022-08-01T00:14:04;2.73;;;1.53;;
36725;SDS011;44936;52.086;5.150;2022-08-01T00:16:29;4.23;;;1.97;;
36725;SDS011;44936;52.086;5.150;2022-08-01T00:18:55;3.87;;;2.03;;
36725;SDS011;44936;52.086;5.150;2022-08-01T00:21:21;3.15;;;1.63;;
36725;SDS011;44936;52.086;5.150;2022-08-01T00:23:46;3.75;;;2.00;;
36725;SDS011;44936;52.086;5.150;2022-08-01T00:26:12;2.57;;;1.37;;
36725;SDS011;44936;52.086;5.150;2022-08-01T00:28:37;2.42;;;1.45;;
36725;SDS011;44936;52.086;5.150;2022-08-01T00:31:02;3.87;;;2.23;;
36725;SDS011;44936;52.086;5.150;2022-08-01T00:33:27;4.10;;;2.00;;
36725;SDS011;44936;52.086;5.150;2022-08-01T00:35:53;3.33;;;1.50;;
36725;SDS011;44936;52.086;5.150;2022-08-01T00:38:18;6.93;;;2.10;;
36725;SDS011;44936;52.086;5.150;2022-08-01T00:40:43;4.47;;;1.83;;
36725;SDS011;44936;52.086;5.150;2022-08-01T00:43:08;7.33;;;2.27;;
36725;SDS011;44936;52.086;5.150;2022-08-01T00:45:34;8.13;;;2.20;;
36725;SDS011;44936;52.086;5.150;2022-08-01T00:47:59;5.20;;;2.07;;
36725;SDS011;44936;52.086;5.150;2022-08-01T00:50:24;5.20;;;2.37;;
36725;SDS011;44936;52.086;5.150;2022-08-01T00:52:49;6.60;;;2.10;;
36725;SDS011;44936;52.086;5.150;2022-08-01T00:55:15;7.90;;;2.50;;
36725;SDS011;44936;52.086;5.150;2022-08-01T00:57:41;5.75;;;2.58;;
36725;SDS011;44936;52.086;5.150;2022-08-01T01:00:06;6.10;;;2.33;;
36725;SDS011;44936;52.086;5.150;2022-08-01T01:02:32;3.58;;;1.88;;
36725;SDS011;44936;52.086;5.150;2022-08-01T01:04:58;4.10;;;1.85;;
36725;SDS011;44936;52.086;5.150;2022-08-01T01:07:32;4.00;;;2.17;;
36725;SDS011;44936;52.086;5.150;2022-08-01T01:12:31;4.53;;;2.15;;
36725;SDS011;44936;52.086;5.150;2022-08-01T01:15:04;4.53;;;2.28;;
36725;SDS011;44936;52.086;5.150;2022-08-01T01:17:32;5.93;;;2.72;;
36725;SDS011;44936;52.086;5.150;2022-08-01T01:20:00;5.10;;;2.20;;
36725;SDS011;44936;52.086;5.150;2022-08-01T01:25:04;5.82;;;2.30;;
36725;SDS011;44936;52.086;5.150;2022-08-01T01:29:56;5.60;;;2.33;;
36725;SDS011;44936;52.086;5.150;2022-08-01T01:32:24;6.80;;;2.45;;
36725;SDS011;44936;52.086;5.150;2022-08-01T01:34:50;8.95;;;2.88;;
36725;SDS011;44936;52.086;5.150;2022-08-01T01:37:20;7.15;;;2.65;;
36725;SDS011;44936;52.086;5.150;2022-08-01T01:39:47;6.18;;;2.13;;
36725;SDS011;44936;52.086;5.150;2022-08-01T01:42:13;7.28;;;2.65;;
36725;SDS011;44936;52.086;5.150;2022-08-01T01:44:38;8.02;;;2.42;;
36725;SDS011;44936;52.086;5.150;2022-08-01T01:47:04;6.40;;;2.78;;
36725;SDS011;44936;52.086;5.150;2022-08-01T01:49:30;8.30;;;2.95;;
36725;SDS011;44936;52.086;5.150;2022-08-01T01:51:57;7.85;;;2.97;;
36725;SDS011;44936;52.086;5.150;2022-08-01T01:54:23;8.02;;;2.67;;
36725;SDS011;44936;52.086;5.150;2022-08-01T01:56:49;7.07;;;2.60;;
36725;SDS011;44936;52.086;5.150;2022-08-01T01:59:19;8.02;;;2.67;;
36725;SDS011;44936;52.086;5.150;2022-08-01T02:01:46;5.93;;;2.45;;
36725;SDS011;44936;52.086;5.150;2022-08-01T02:04:11;5.90;;;2.20;;
36725;SDS011;44936;52.086;5.150;2022-08-01T02:06:37;6.65;;;2.30;;
36725;SDS011;44936;52.086;5.150;2022-08-01T02:09:03;6.45;;;2.17;;
36725;SDS011;44936;52.086;5.150;2022-08-01T02:11:28;8.32;;;2.50;;
36725;SDS011;44936;52.086;5.150;2022-08-01T02:13:58;6.18;;;2.08;;
36725;SDS011;44936;52.086;5.150;2022-08-01T02:16:24;7.32;;;2.47;;
36725;SDS011;44936;52.086;5.150;2022-08-01T02:18:50;5.35;;;2.25;;
36725;SDS011;44936;52.086;5.150;2022-08-01T02:21:16;4.63;;;2.00;;
36725;SDS011;44936;52.086;5.150;2022-08-01T02:23:43;3.50;;;2.08;;
36725;SDS011;44936;52.086;5.150;2022-08-01T02:26:09;6.15;;;2.63;;
36725;SDS011;44936;52.086;5.150;2022-08-01T02:28:37;6.07;;;2.05;;
36725;SDS011;44936;52.086;5.150;2022-08-01T02:31:06;4.70;;;1.60;;
36725;SDS011;44936;52.086;5.150;2022-08-01T02:33:34;4.80;;;1.95;;
36725;SDS011;44936;52.086;5.150;2022-08-01T02:36:01;4.43;;;1.80;;
36725;SDS011;44936;52.086;5.150;2022-08-01T02:38:28;2.28;;;1.40;;
36725;SDS011;44936;52.086;5.150;2022-08-01T02:40:55;3.88;;;1.95;;
36725;SDS011;44936;52.086;5.150;2022-08-01T02:43:23;3.38;;;1.75;;
36725;SDS011;44936;52.086;5.150;2022-08-01T02:45:51;3.13;;;1.60;;
36725;SDS011;44936;52.086;5.150;2022-08-01T02:48:17;4.22;;;2.28;;
36725;SDS011;44936;52.086;5.150;2022-08-01T02:50:45;5.00;;;2.20;;
36725;SDS011;44936;52.086;5.150;2022-08-01T02:53:12;6.65;;;2.25;;
36725;SDS011;44936;52.086;5.150;2022-08-01T02:55:38;4.80;;;2.05;;
36725;SDS011;44936;52.086;5.150;2022-08-01T02:58:04;4.80;;;2.30;;
36725;SDS011;44936;52.086;5.150;2022-08-01T03:00:31;4.05;;;2.30;;
36725;SDS011;44936;52.086;5.150;2022-08-01T03:02:58;5.65;;;2.28;;
36725;SDS011;44936;52.086;5.150;2022-08-01T03:05:24;4.15;;;2.05;;
36725;SDS011;44936;52.086;5.150;2022-08-01T03:07:50;5.03;;;2.05;;
36725;SDS011;44936;52.086;5.150;2022-08-01T03:10:16;6.35;;;2.85;;
36725;SDS011;44936;52.086;5.150;2022-08-01T03:12:42;7.13;;;3.25;;
36725;SDS011;44936;52.086;5.150;2022-08-01T03:15:08;5.43;;;2.55;;
36725;SDS011;44936;52.086;5.150;2022-08-01T03:17:34;5.47;;;2.50;;
36725;SDS011;44936;52.086;5.150;2022-08-01T03:20:01;8.90;;;3.75;;
36725;SDS011;44936;52.086;5.150;2022-08-01T03:22:27;7.70;;;2.88;;
36725;SDS011;44936;52.086;5.150;2022-08-01T03:24:53;6.82;;;2.53;;
36725;SDS011;44936;52.086;5.150;2022-08-01T03:27:20;5.28;;;2.50;;
36725;SDS011;44936;52.086;5.150;2022-08-01T03:29:46;5.05;;;2.88;;
36725;SDS011;44936;52.086;5.150;2022-08-01T03:32:12;5.72;;;3.00;;
36725;SDS011;44936;52.086;5.150;2022-08-01T03:34:38;6.53;;;3.00;;
36725;SDS011;44936;52.086;5.150;2022-08-01T03:37:05;5.53;;;2.83;;
36725;SDS011;44936;52.086;5.150;2022-08-01T03:39:33;6.45;;;2.33;;
36725;SDS011;44936;52.086;5.150;2022-08-01T03:42:05;4.85;;;2.53;;
36725;SDS011;44936;52.086;5.150;2022-08-01T03:44:32;4.88;;;2.58;;
36725;SDS011;44936;52.086;5.150;2022-08-01T03:46:59;7.25;;;2.25;;
36725;SDS011;44936;52.086;5.150;2022-08-01T03:49:26;4.93;;;2.38;;
36725;SDS011;44936;52.086;5.150;2022-08-01T03:51:53;7.97;;;3.00;;
36725;SDS011;44936;52.086;5.150;2022-08-01T03:54:23;4.32;;;2.50;;
36725;SDS011;44936;52.086;5.150;2022-08-01T03:56:49;7.63;;;2.45;;
36725;SDS011;44936;52.086;5.150;2022-08-01T03:59:16;4.25;;;2.20;;
36725;SDS011;44936;52.086;5.150;2022-08-01T04:01:41;4.72;;;2.15;;
36725;SDS011;44936;52.086;5.150;2022-08-01T04:04:07;4.78;;;2.40;;
36725;SDS011;44936;52.086;5.150;2022-08-01T04:06:32;6.07;;;2.20;;
36725;SDS011;44936;52.086;5.150;2022-08-01T04:08:58;4.80;;;2.33;;
36725;SDS011;44936;52.086;5.150;2022-08-01T04:11:24;3.60;;;1.98;;
36725;SDS011;44936;52.086;5.150;2022-08-01T04:13:50;7.35;;;2.72;;
36725;SDS011;44936;52.086;5.150;2022-08-01T04:16:16;6.10;;;2.03;;
36725;SDS011;44936;52.086;5.150;2022-08-01T04:18:41;6.43;;;2.10;;
36725;SDS011;44936;52.086;5.150;2022-08-01T04:21:06;6.00;;;2.10;;
36725;SDS011;44936;52.086;5.150;2022-08-01T04:23:31;4.40;;;2.40;;
36725;SDS011;44936;52.086;5.150;2022-08-01T04:25:59;4.68;;;2.25;;
36725;SDS011;44936;52.086;5.150;2022-08-01T04:28:25;4.07;;;1.80;;
36725;SDS011;44936;52.086;5.150;2022-08-01T04:30:52;3.53;;;2.00;;
36725;SDS011;44936;52.086;5.150;2022-08-01T04:33:19;3.85;;;2.08;;
36725;SDS011;44936;52.086;5.150;2022-08-01T04:35:44;3.22;;;1.70;;
36725;SDS011;44936;52.086;5.150;2022-08-01T04:38:10;6.28;;;1.95;;
36725;SDS011;44936;52.086;5.150;2022-08-01T04:40:37;5.65;;;2.00;;
36725;SDS011;44936;52.086;5.150;2022-08-01T04:43:03;4.55;;;2.50;;
36725;SDS011;44936;52.086;5.150;2022-08-01T04:45:28;5.80;;;1.80;;
36725;SDS011;44936;52.086;5.150;2022-08-01T04:47:53;4.35;;;1.70;;
36725;SDS011;44936;52.086;5.150;2022-08-01T04:50:19;4.68;;;2.20;;
36725;SDS011;44936;52.086;5.150;2022-08-01T04:52:46;2.92;;;1.80;;
36725;SDS011;44936;52.086;5.150;2022-08-01T04:55:12;4.90;;;2.25;;
36725;SDS011;44936;52.086;5.150;2022-08-01T04:57:38;4.30;;;1.77;;
36725;SDS011;44936;52.086;5.150;2022-08-01T05:00:04;3.92;;;1.92;;
36725;SDS011;44936;52.086;5.150;2022-08-01T05:02:31;4.18;;;2.38;;
36725;SDS011;44936;52.086;5.150;2022-08-01T05:04:56;4.13;;;1.90;;
36725;SDS011;44936;52.086;5.150;2022-08-01T05:07:21;3.80;;;1.70;;
36725;SDS011;44936;52.086;5.150;2022-08-01T05:09:46;4.63;;;2.10;;
36725;SDS011;44936;52.086;5.150;2022-08-01T05:12:12;5.63;;;2.00;;
36725;SDS011;44936;52.086;5.150;2022-08-01T05:14:37;5.50;;;2.20;;
36725;SDS011;44936;52.086;5.150;2022-08-01T05:17:03;4.00;;;2.08;;
36725;SDS011;44936;52.086;5.150;2022-08-01T05:19:35;2.58;;;1.67;;
36725;SDS011;44936;52.086;5.150;2022-08-01T05:24:27;3.33;;;1.20;;
36725;SDS011;44936;52.086;5.150;2022-08-01T05:26:53;1.42;;;1.08;;
36725;SDS011;44936;52.086;5.150;2022-08-01T05:29:18;1.50;;;1.05;;
36725;SDS011;44936;52.086;5.150;2022-08-01T05:31:46;2.65;;;0.90;;
36725;SDS011;44936;52.086;5.150;2022-08-01T05:34:17;2.13;;;0.97;;
36725;SDS011;44936;52.086;5.150;2022-08-01T05:36:43;1.20;;;0.80;;
36725;SDS011;44936;52.086;5.150;2022-08-01T05:39:09;0.70;;;0.70;;
36725;SDS011;44936;52.086;5.150;2022-08-01T05:41:35;0.50;;;0.50;;
36725;SDS011;44936;52.086;5.150;2022-08-01T05:44:01;1.23;;;0.80;;
36725;SDS011;44936;52.086;5.150;2022-08-01T05:46:26;1.37;;;0.80;;
36725;SDS011;44936;52.086;5.150;2022-08-01T05:48:51;0.93;;;0.70;;
36725;SDS011;44936;52.086;5.150;2022-08-01T05:51:16;1.53;;;0.90;;
36725;SDS011;44936;52.086;5.150;2022-08-01T05:53:42;1.60;;;0.97;;
36725;SDS011;44936;52.086;5.150;2022-08-01T05:56:07;1.50;;;0.90;;
36725;SDS011;44936;52.086;5.150;2022-08-01T05:58:32;1.00;;;0.90;;
36725;SDS011;44936;52.086;5.150;2022-08-01T06:00:57;0.80;;;0.70;;
36725;SDS011;44936;52.086;5.150;2022-08-01T06:03:23;1.02;;;0.93;;
36725;SDS011;44936;52.086;5.150;2022-08-01T06:05:48;0.97;;;0.70;;
36725;SDS011;44936;52.086;5.150;2022-08-01T06:08:13;0.60;;;0.60;;
36725;SDS011;44936;52.086;5.150;2022-08-01T06:10:38;0.40;;;0.40;;
36725;SDS011;44936;52.086;5.150;2022-08-01T06:13:03;0.60;;;0.60;;
36725;SDS011;44936;52.086;5.150;2022-08-01T06:15:29;2.83;;;0.70;;
36725;SDS011;44936;52.086;5.150;2022-08-01T06:17:55;0.80;;;0.55;;
36725;SDS011;44936;52.086;5.150;2022-08-01T06:20:20;1.10;;;0.70;;
36725;SDS011;44936;52.086;5.150;2022-08-01T06:22:45;1.00;;;0.60;;
36725;SDS011;44936;52.086;5.150;2022-08-01T06:25:10;0.70;;;0.50;;
36725;SDS011;44936;52.086;5.150;2022-08-01T06:27:36;1.17;;;0.80;;
36725;SDS011;44936;52.086;5.150;2022-08-01T06:30:01;2.72;;;0.75;;
36725;SDS011;44936;52.086;5.150;2022-08-01T06:32:26;1.20;;;0.52;;
36725;SDS011;44936;52.086;5.150;2022-08-01T06:34:52;0.80;;;0.80;;
36725;SDS011;44936;52.086;5.150;2022-08-01T06:37:17;2.00;;;0.75;;
36725;SDS011;44936;52.086;5.150;2022-08-01T06:39:42;0.90;;;0.90;;
36725;SDS011;44936;52.086;5.150;2022-08-01T06:42:07;0.50;;;0.50;;
36725;SDS011;44936;52.086;5.150;2022-08-01T06:44:34;1.88;;;0.98;;
36725;SDS011;44936;52.086;5.150;2022-08-01T06:46:59;0.73;;;0.70;;
36725;SDS011;44936;52.086;5.150;2022-08-01T06:49:24;0.97;;;0.70;;
36725;SDS011;44936;52.086;5.150;2022-08-01T06:51:49;0.70;;;0.57;;
36725;SDS011;44936;52.086;5.150;2022-08-01T06:54:15;1.00;;;0.87;;
36725;SDS011;44936;52.086;5.150;2022-08-01T06:56:41;1.35;;;0.80;;
36725;SDS011;44936;52.086;5.150;2022-08-01T06:59:06;1.58;;;0.70;;
36725;SDS011;44936;52.086;5.150;2022-08-01T07:01:31;1.17;;;0.70;;
36725;SDS011;44936;52.086;5.150;2022-08-01T07:03:56;2.27;;;0.90;;
36725;SDS011;44936;52.086;5.150;2022-08-01T07:06:22;4.47;;;1.03;;
36725;SDS011;44936;52.086;5.150;2022-08-01T07:08:48;2.13;;;0.98;;
36725;SDS011;44936;52.086;5.150;2022-08-01T07:11:13;1.37;;;0.77;;
36725;SDS011;44936;52.086;5.150;2022-08-01T07:13:38;4.63;;;1.30;;
36725;SDS011;44936;52.086;5.150;2022-08-01T07:16:03;5.80;;;1.53;;
36725;SDS011;44936;52.086;5.150;2022-08-01T07:18:28;2.13;;;0.93;;
36725;SDS011;44936;52.086;5.150;2022-08-01T07:20:54;3.43;;;1.40;;
36725;SDS011;44936;52.086;5.150;2022-08-01T07:23:19;3.77;;;0.90;;
36725;SDS011;44936;52.086;5.150;2022-08-01T07:25:44;2.73;;;0.87;;
36725;SDS011;44936;52.086;5.150;2022-08-01T07:28:09;3.50;;;1.20;;
36725;SDS011;44936;52.086;5.150;2022-08-01T07:30:35;4.13;;;1.10;;
36725;SDS011;44936;52.086;5.150;2022-08-01T07:33:00;5.47;;;0.95;;
36725;SDS011;44936;52.086;5.150;2022-08-01T07:35:25;1.77;;;0.95;;
36725;SDS011;44936;52.086;5.150;2022-08-01T07:37:51;4.50;;;0.90;;
36725;SDS011;44936;52.086;5.150;2022-08-01T07:40:18;1.50;;;0.82;;
36725;SDS011;44936;52.086;5.150;2022-08-01T07:42:43;4.22;;;1.17;;
36725;SDS011;44936;52.086;5.150;2022-08-01T07:45:10;2.53;;;1.35;;
36725;SDS011;44936;52.086;5.150;2022-08-01T07:47:35;4.43;;;1.10;;
36725;SDS011;44936;52.086;5.150;2022-08-01T07:50:00;4.60;;;0.87;;
36725;SDS011;44936;52.086;5.150;2022-08-01T07:52:26;4.30;;;1.40;;
36725;SDS011;44936;52.086;5.150;2022-08-01T07:54:52;4.22;;;0.93;;
36725;SDS011;44936;52.086;5.150;2022-08-01T07:57:17;3.67;;;0.93;;
36725;SDS011;44936;52.086;5.150;2022-08-01T07:59:42;3.37;;;1.00;;
36725;SDS011;44936;52.086;5.150;2022-08-01T08:02:07;1.63;;;0.70;;
36725;SDS011;44936;52.086;5.150;2022-08-01T08:04:32;3.83;;;0.90;;
36725;SDS011;44936;52.086;5.150;2022-08-01T08:06:58;3.17;;;0.77;;
36725;SDS011;44936;52.086;5.150;2022-08-01T08:09:23;1.20;;;0.73;;
36725;SDS011;44936;52.086;5.150;2022-08-01T08:11:48;4.13;;;1.00;;
36725;SDS011;44936;52.086;5.150;2022-08-01T08:14:14;2.25;;;0.88;;
36725;SDS011;44936;52.086;5.150;2022-08-01T08:16:39;1.10;;;0.60;;
36725;SDS011;44936;52.086;5.150;2022-08-01T08:19:05;2.20;;;0.70;;
36725;SDS011;44936;52.086;5.150;2022-08-01T08:21:30;7.73;;;2.00;;
36725;SDS011;44936;52.086;5.150;2022-08-01T08:23:55;1.33;;;0.90;;
36725;SDS011;44936;52.086;5.150;2022-08-01T08:26:39;3.38;;;0.88;;
36725;SDS011;44936;52.086;5.150;2022-08-01T08:29:05;4.33;;;0.97;;
36725;SDS011;44936;52.086;5.150;2022-08-01T08:31:30;4.00;;;0.88;;
36725;SDS011;44936;52.086;5.150;2022-08-01T08:33:55;3.83;;;1.17;;
36725;SDS011;44936;52.086;5.150;2022-08-01T08:36:21;1.90;;;0.93;;
36725;SDS011;44936;52.086;5.150;2022-08-01T08:38:46;2.47;;;1.00;;
36725;SDS011;44936;52.086;5.150;2022-08-01T08:41:11;0.85;;;0.75;;
36725;SDS011;44936;52.086;5.150;2022-08-01T08:43:36;5.93;;;1.07;;
36725;SDS011;44936;52.086;5.150;2022-08-01T08:46:01;3.93;;;1.00;;
36725;SDS011;44936;52.086;5.150;2022-08-01T08:48:27;2.65;;;0.70;;
36725;SDS011;44936;52.086;5.150;2022-08-01T08:50:52;4.47;;;0.70;;
36725;SDS011;44936;52.086;5.150;2022-08-01T08:53:17;4.03;;;0.77;;
36725;SDS011;44936;52.086;5.150;2022-08-01T08:55:43;2.65;;;1.52;;
36725;SDS011;44936;52.086;5.150;2022-08-01T08:58:10;4.50;;;0.70;;
36725;SDS011;44936;52.086;5.150;2022-08-01T09:00:37;5.82;;;0.93;;
36725;SDS011;44936;52.086;5.150;2022-08-01T09:03:03;3.03;;;0.80;;
36725;SDS011;44936;52.086;5.150;2022-08-01T09:05:28;1.50;;;0.80;;
36725;SDS011;44936;52.086;5.150;2022-08-01T09:07:54;1.75;;;0.70;;
36725;SDS011;44936;52.086;5.150;2022-08-01T09:10:19;1.80;;;0.60;;
36725;SDS011;44936;52.086;5.150;2022-08-01T09:13:03;2.33;;;1.27;;
36725;SDS011;44936;52.086;5.150;2022-08-01T09:15:49;1.92;;;0.60;;
36725;SDS011;44936;52.086;5.150;2022-08-01T09:18:29;5.22;;;0.70;;
36725;SDS011;44936;52.086;5.150;2022-08-01T09:21:11;3.63;;;0.75;;
36725;SDS011;44936;52.086;5.150;2022-08-01T09:23:38;0.80;;;0.65;;
36725;SDS011;44936;52.086;5.150;2022-08-01T09:26:14;3.40;;;0.95;;
36725;SDS011;44936;52.086;5.150;2022-08-01T09:28:40;3.17;;;0.50;;
36725;SDS011;44936;52.086;5.150;2022-08-01T09:31:10;2.30;;;0.90;;
36725;SDS011;44936;52.086;5.150;2022-08-01T09:33:54;3.13;;;0.70;;
36725;SDS011;44936;52.086;5.150;2022-08-01T09:36:20;3.13;;;0.75;;
36725;SDS011;44936;52.086;5.150;2022-08-01T09:38:46;1.33;;;0.55;;
36725;SDS011;44936;52.086;5.150;2022-08-01T09:41:11;1.30;;;0.73;;
36725;SDS011;44936;52.086;5.150;2022-08-01T09:43:37;0.65;;;0.50;;
36725;SDS011;44936;52.086;5.150;2022-08-01T09:46:11;3.33;;;1.30;;
36725;SDS011;44936;52.086;5.150;2022-08-01T09:48:36;3.00;;;0.80;;
36725;SDS011;44936;52.086;5.150;2022-08-01T09:51:04;4.28;;;0.70;;
36725;SDS011;44936;52.086;5.150;2022-08-01T09:53:39;2.28;;;1.08;;
36725;SDS011;44936;52.086;5.150;2022-08-01T09:56:11;5.07;;;0.55;;
36725;SDS011;44936;52.086;5.150;2022-08-01T10:04:09;2.42;;;0.70;;
36725;SDS011;44936;52.086;5.150;2022-08-01T10:06:35;1.65;;;0.68;;
36725;SDS011;44936;52.086;5.150;2022-08-01T10:09:01;1.42;;;0.68;;
36725;SDS011;44936;52.086;5.150;2022-08-01T10:11:26;1.83;;;0.70;;
36725;SDS011;44936;52.086;5.150;2022-08-01T10:13:53;2.47;;;0.73;;
36725;SDS011;44936;52.086;5.150;2022-08-01T10:16:18;2.17;;;0.60;;
36725;SDS011;44936;52.086;5.150;2022-08-01T10:18:44;1.67;;;0.80;;
36725;SDS011;44936;52.086;5.150;2022-08-01T10:21:09;1.63;;;0.55;;
36725;SDS011;44936;52.086;5.150;2022-08-01T10:23:35;2.75;;;0.85;;
36725;SDS011;44936;52.086;5.150;2022-08-01T10:26:01;3.65;;;0.52;;
36725;SDS011;44936;52.086;5.150;2022-08-01T10:28:26;1.13;;;0.60;;
36725;SDS011;44936;52.086;5.150;2022-08-01T10:30:54;2.53;;;0.60;;
36725;SDS011;44936;52.086;5.150;2022-08-01T10:33:21;1.55;;;0.55;;
36725;SDS011;44936;52.086;5.150;2022-08-01T10:35:46;2.15;;;0.60;;
36725;SDS011;44936;52.086;5.150;2022-08-01T10:38:12;1.40;;;0.50;;
36725;SDS011;44936;52.086;5.150;2022-08-01T10:40:37;1.77;;;0.55;;
36725;SDS011;44936;52.086;5.150;2022-08-01T10:43:03;2.80;;;0.43;;
36725;SDS011;44936;52.086;5.150;2022-08-01T10:45:28;3.15;;;0.60;;
36725;SDS011;44936;52.086;5.150;2022-08-01T10:48:02;2.15;;;0.40;;
36725;SDS011;44936;52.086;5.150;2022-08-01T10:50:31;1.48;;;0.77;;
36725;SDS011;44936;52.086;5.150;2022-08-01T10:55:44;1.40;;;0.50;;
36725;SDS011;44936;52.086;5.150;2022-08-01T10:58:09;3.13;;;0.70;;
36725;SDS011;44936;52.086;5.150;2022-08-01T11:00:35;2.38;;;0.90;;
36725;SDS011;44936;52.086;5.150;2022-08-01T11:03:01;3.08;;;0.50;;
36725;SDS011;44936;52.086;5.150;2022-08-01T11:05:28;1.92;;;0.55;;
36725;SDS011;44936;52.086;5.150;2022-08-01T11:07:55;2.15;;;0.70;;
36725;SDS011;44936;52.086;5.150;2022-08-01T11:12:57;2.05;;;0.73;;
36725;SDS011;44936;52.086;5.150;2022-08-01T11:15:24;3.15;;;0.82;;
36725;SDS011;44936;52.086;5.150;2022-08-01T11:17:50;1.15;;;0.60;;
36725;SDS011;44936;52.086;5.150;2022-08-01T11:30:37;0.68;;;0.38;;
36725;SDS011;44936;52.086;5.150;2022-08-01T11:33:02;2.30;;;0.73;;
36725;SDS011;44936;52.086;5.150;2022-08-01T11:35:27;4.67;;;0.43;;
36725;SDS011;44936;52.086;5.150;2022-08-01T11:37:53;3.40;;;0.70;;
36725;SDS011;44936;52.086;5.150;2022-08-01T11:42:46;4.03;;;0.70;;
36725;SDS011;44936;52.086;5.150;2022-08-01T11:45:12;4.70;;;0.90;;
36725;SDS011;44936;52.086;5.150;2022-08-01T11:47:44;1.17;;;0.60;;
36725;SDS011;44936;52.086;5.150;2022-08-01T11:50:29;2.28;;;0.55;;
36725;SDS011;44936;52.086;5.150;2022-08-01T11:52:58;2.38;;;0.68;;
36725;SDS011;44936;52.086;5.150;2022-08-01T11:55:23;2.42;;;0.50;;
36725;SDS011;44936;52.086;5.150;2022-08-01T11:57:49;0.47;;;0.40;;
36725;SDS011;44936;52.086;5.150;2022-08-01T12:00:16;2.25;;;0.45;;
36725;SDS011;44936;52.086;5.150;2022-08-01T12:02:41;3.83;;;0.70;;
36725;SDS011;44936;52.086;5.150;2022-08-01T12:05:11;2.35;;;0.40;;
36725;SDS011;44936;52.086;5.150;2022-08-01T12:07:42;2.92;;;0.60;;
36725;SDS011;44936;52.086;5.150;2022-08-01T12:10:09;1.85;;;0.57;;
36725;SDS011;44936;52.086;5.150;2022-08-01T12:12:35;1.08;;;0.40;;
36725;SDS011;44936;52.086;5.150;2022-08-01T12:15:05;1.88;;;0.70;;
36725;SDS011;44936;52.086;5.150;2022-08-01T12:17:32;1.92;;;0.70;;
36725;SDS011;44936;52.086;5.150;2022-08-01T12:19:57;2.28;;;0.70;;
36725;SDS011;44936;52.086;5.150;2022-08-01T12:22:23;1.17;;;0.43;;
36725;SDS011;44936;52.086;5.150;2022-08-01T12:24:48;0.95;;;0.60;;
36725;SDS011;44936;52.086;5.150;2022-08-01T12:27:23;1.67;;;0.40;;
36725;SDS011;44936;52.086;5.150;2022-08-01T12:29:48;3.15;;;0.50;;
36725;SDS011;44936;52.086;5.150;2022-08-01T12:32:47;1.73;;;0.57;;
36725;SDS011;44936;52.086;5.150;2022-08-01T12:37:31;0.40;;;0.40;;
36725;SDS011;44936;52.086;5.150;2022-08-01T12:39:57;1.35;;;0.32;;
36725;SDS011;44936;52.086;5.150;2022-08-01T12:42:22;2.28;;;0.52;;
36725;SDS011;44936;52.086;5.150;2022-08-01T12:44:50;1.42;;;0.65;;
36725;SDS011;44936;52.086;5.150;2022-08-01T12:47:16;0.38;;;0.38;;
36725;SDS011;44936;52.086;5.150;2022-08-01T12:49:43;2.92;;;0.50;;
36725;SDS011;44936;52.086;5.150;2022-08-01T12:52:09;1.42;;;0.40;;
36725;SDS011;44936;52.086;5.150;2022-08-01T12:57:22;2.28;;;0.50;;
36725;SDS011;44936;52.086;5.150;2022-08-01T12:59:48;2.60;;;0.40;;
36725;SDS011;44936;52.086;5.150;2022-08-01T13:02:13;0.67;;;0.40;;
36725;SDS011;44936;52.086;5.150;2022-08-01T13:05:00;0.87;;;0.30;;
36725;SDS011;44936;52.086;5.150;2022-08-01T13:07:34;1.25;;;0.32;;
36725;SDS011;44936;52.086;5.150;2022-08-01T13:09:59;2.20;;;0.75;;
36725;SDS011;44936;52.086;5.150;2022-08-01T13:12:25;1.43;;;0.50;;
36725;SDS011;44936;52.086;5.150;2022-08-01T13:14:50;3.67;;;0.27;;
36725;SDS011;44936;52.086;5.150;2022-08-01T13:17:29;0.20;;;0.20;;
36725;SDS011;44936;52.086;5.150;2022-08-01T13:19:54;0.43;;;0.30;;
36725;SDS011;44936;52.086;5.150;2022-08-01T13:22:19;1.20;;;0.53;;
36725;SDS011;44936;52.086;5.150;2022-08-01T13:24:45;1.38;;;0.80;;
36725;SDS011;44936;52.086;5.150;2022-08-01T13:27:19;1.27;;;1.03;;
36725;SDS011;44936;52.086;5.150;2022-08-01T13:29:44;4.07;;;0.65;;
36725;SDS011;44936;52.086;5.150;2022-08-01T13:34:39;1.35;;;0.70;;
36725;SDS011;44936;52.086;5.150;2022-08-01T13:37:04;0.50;;;0.40;;
36725;SDS011;44936;52.086;5.150;2022-08-01T13:39:30;2.27;;;0.20;;
36725;SDS011;44936;52.086;5.150;2022-08-01T13:42:12;0.63;;;0.30;;
36725;SDS011;44936;52.086;5.150;2022-08-01T13:44:37;1.25;;;0.40;;
36725;SDS011;44936;52.086;5.150;2022-08-01T13:47:03;1.38;;;0.30;;
36725;SDS011;44936;52.086;5.150;2022-08-01T13:49:29;0.90;;;0.55;;
36725;SDS011;44936;52.086;5.150;2022-08-01T13:51:54;1.73;;;0.43;;
36725;SDS011;44936;52.086;5.150;2022-08-01T13:54:19;1.73;;;0.40;;
36725;SDS011;44936;52.086;5.150;2022-08-01T13:56:44;2.45;;;0.50;;
36725;SDS011;44936;52.086;5.150;2022-08-01T13:59:10;1.03;;;0.50;;
36725;SDS011;44936;52.086;5.150;2022-08-01T14:01:35;1.80;;;0.40;;
36725;SDS011;44936;52.086;5.150;2022-08-01T14:04:01;1.45;;;0.43;;
36725;SDS011;44936;52.086;5.150;2022-08-01T14:06:26;1.02;;;0.52;;
36725;SDS011;44936;52.086;5.150;2022-08-01T14:08:51;0.25;;;0.20;;
36725;SDS011;44936;52.086;5.150;2022-08-01T14:11:16;1.43;;;0.40;;
36725;SDS011;44936;52.086;5.150;2022-08-01T14:13:42;0.75;;;0.32;;
36725;SDS011;44936;52.086;5.150;2022-08-01T14:16:07;0.85;;;0.40;;
36725;SDS011;44936;52.086;5.150;2022-08-01T14:18:33;2.70;;;0.40;;
36725;SDS011;44936;52.086;5.150;2022-08-01T14:20:58;1.33;;;0.50;;
36725;SDS011;44936;52.086;5.150;2022-08-01T14:23:24;4.32;;;0.82;;
36725;SDS011;44936;52.086;5.150;2022-08-01T14:25:49;0.30;;;0.30;;
36725;SDS011;44936;52.086;5.150;2022-08-01T14:28:15;0.77;;;0.43;;
36725;SDS011;44936;52.086;5.150;2022-08-01T14:30:40;0.50;;;0.35;;
36725;SDS011;44936;52.086;5.150;2022-08-01T14:33:07;0.80;;;0.45;;
36725;SDS011;44936;52.086;5.150;2022-08-01T14:35:32;1.03;;;0.33;;
36725;SDS011;44936;52.086;5.150;2022-08-01T14:37:57;0.50;;;0.30;;
36725;SDS011;44936;52.086;5.150;2022-08-01T14:40:23;0.45;;;0.25;;
36725;SDS011;44936;52.086;5.150;2022-08-01T14:42:48;0.80;;;0.60;;
36725;SDS011;44936;52.086;5.150;2022-08-01T14:45:13;0.50;;;0.40;;
36725;SDS011;44936;52.086;5.150;2022-08-01T14:47:39;2.33;;;0.40;;
36725;SDS011;44936;52.086;5.150;2022-08-01T14:50:05;0.30;;;0.20;;
36725;SDS011;44936;52.086;5.150;2022-08-01T14:52:31;0.50;;;0.35;;
36725;SDS011;44936;52.086;5.150;2022-08-01T14:54:57;0.63;;;0.30;;
36725;SDS011;44936;52.086;5.150;2022-08-01T14:57:22;0.50;;;0.27;;
36725;SDS011;44936;52.086;5.150;2022-08-01T14:59:47;1.43;;;0.50;;
36725;SDS011;44936;52.086;5.150;2022-08-01T15:02:12;0.63;;;0.30;;
36725;SDS011;44936;52.086;5.150;2022-08-01T15:04:42;0.93;;;0.55;;
36725;SDS011;44936;52.086;5.150;2022-08-01T15:07:07;0.60;;;0.25;;
36725;SDS011;44936;52.086;5.150;2022-08-01T15:09:32;2.10;;;0.60;;
36725;SDS011;44936;52.086;5.150;2022-08-01T15:11:57;0.30;;;0.20;;
36725;SDS011;44936;52.086;5.150;2022-08-01T15:14:23;2.17;;;0.50;;
36725;SDS011;44936;52.086;5.150;2022-08-01T15:17:07;0.28;;;0.20;;
36725;SDS011;44936;52.086;5.150;2022-08-01T15:19:32;0.47;;;0.30;;
36725;SDS011;44936;52.086;5.150;2022-08-01T15:21:58;0.60;;;0.50;;
36725;SDS011;44936;52.086;5.150;2022-08-01T15:24:23;0.30;;;0.30;;
36725;SDS011;44936;52.086;5.150;2022-08-01T15:26:48;0.50;;;0.40;;